createdAt,value
2022-11-16T00:01:43.855Z,7.31
2022-11-16T00:04:12.576Z,7.31
2022-11-16T00:06:41.548Z,7.29
2022-11-16T00:09:24.327Z,7.28
2022-11-16T00:11:55.244Z,7.27
2022-11-16T00:14:26.872Z,7.27
2022-11-16T00:16:55.708Z,7.27
2022-11-16T00:19:24.342Z,7.28
2022-11-16T00:21:53.283Z,7.29
2022-11-16T00:24:22.788Z,7.28
2022-11-16T00:26:51.209Z,7.28
2022-11-16T00:29:23.078Z,7.27
2022-11-16T00:31:51.743Z,7.26
2022-11-16T00:34:20.508Z,7.28
2022-11-16T00:36:49.512Z,7.30
2022-11-16T00:39:18.900Z,7.31
2022-11-16T00:41:48.655Z,7.31
2022-11-16T00:44:16.864Z,7.32
2022-11-16T00:46:45.411Z,7.32
2022-11-16T00:49:13.857Z,7.32
2022-11-16T00:51:42.380Z,7.32
2022-11-16T00:54:11.302Z,7.31
2022-11-16T00:56:40.391Z,7.30
2022-11-16T00:59:08.685Z,7.29
2022-11-16T01:02:05.671Z,7.28
2022-11-16T01:04:34.943Z,7.26
2022-11-16T01:07:03.029Z,7.23
2022-11-16T01:09:31.615Z,7.18
2022-11-16T01:12:09.414Z,7.19
2022-11-16T01:14:43.563Z,7.19
2022-11-16T01:17:14.913Z,7.20
2022-11-16T01:19:44.988Z,7.22
2022-11-16T01:22:13.709Z,7.26
2022-11-16T01:24:42.673Z,7.28
2022-11-16T01:27:10.971Z,7.30
2022-11-16T01:29:41.781Z,7.30
2022-11-16T01:32:11.877Z,7.30
2022-11-16T01:34:40.250Z,7.31
2022-11-16T01:37:22.445Z,7.32
2022-11-16T01:39:51.451Z,7.31
2022-11-16T01:42:27.000Z,7.29
2022-11-16T01:45:06.738Z,7.27
2022-11-16T01:47:34.947Z,7.27
2022-11-16T01:50:12.776Z,7.26
2022-11-16T01:53:00.341Z,7.26
2022-11-16T01:55:36.219Z,7.29
2022-11-16T01:58:17.523Z,7.32
2022-11-16T02:00:47.006Z,7.32
2022-11-16T02:03:27.860Z,7.34
2022-11-16T02:06:20.368Z,7.34
2022-11-16T02:09:31.968Z,7.35
2022-11-16T02:12:29.266Z,7.35
2022-11-16T02:15:22.184Z,7.35
2022-11-16T02:18:11.420Z,7.32
2022-11-16T02:21:13.843Z,7.30
2022-11-16T02:24:04.089Z,7.28
2022-11-16T02:26:54.619Z,7.26
2022-11-16T02:29:37.413Z,7.25
2022-11-16T02:32:42.550Z,7.24
2022-11-16T02:35:27.027Z,7.25
2022-11-16T02:38:00.083Z,7.28
2022-11-16T02:40:32.080Z,7.32
2022-11-16T02:43:07.463Z,7.33
2022-11-16T02:45:40.805Z,7.31
2022-11-16T02:48:13.192Z,7.31
2022-11-16T02:50:42.809Z,7.32
2022-11-16T02:53:10.593Z,7.33
2022-11-16T02:55:40.233Z,7.35
2022-11-16T02:58:12.593Z,7.36
2022-11-16T03:00:46.841Z,7.34
2022-11-16T03:03:33.983Z,7.30
2022-11-16T03:06:08.784Z,7.26
2022-11-16T03:08:42.776Z,7.23
2022-11-16T03:11:30.990Z,7.20
2022-11-16T03:14:03.497Z,7.17
2022-11-16T03:16:43.284Z,7.12
2022-11-16T03:19:16.404Z,7.07
2022-11-16T03:21:49.291Z,7.03
2022-11-16T03:24:17.133Z,6.96
2022-11-16T03:26:55.424Z,6.86
2022-11-16T03:29:31.950Z,6.73
2022-11-16T03:32:13.251Z,6.64
2022-11-16T03:34:49.402Z,6.55
2022-11-16T03:37:19.689Z,6.47
2022-11-16T03:39:48.803Z,6.38
2022-11-16T03:42:17.235Z,6.27
2022-11-16T03:44:46.876Z,6.20
2022-11-16T03:47:15.375Z,6.12
2022-11-16T03:49:48.059Z,6.10
2022-11-16T03:52:18.078Z,6.07
2022-11-16T03:54:46.219Z,6.04
2022-11-16T03:57:18.388Z,6.02
2022-11-16T03:59:49.597Z,6.00
2022-11-16T04:02:17.358Z,6.01
2022-11-16T04:05:06.756Z,6.01
2022-11-16T04:07:53.475Z,5.99
2022-11-16T04:10:40.155Z,5.98
2022-11-16T04:13:31.015Z,5.98
2022-11-16T04:16:17.500Z,5.96
2022-11-16T04:19:04.575Z,5.93
2022-11-16T04:21:57.713Z,5.87
2022-11-16T04:24:31.875Z,5.84
2022-11-16T04:27:27.072Z,5.81
2022-11-16T04:29:58.778Z,5.78
2022-11-16T04:32:47.215Z,5.75
2022-11-16T04:35:33.633Z,5.72
2022-11-16T04:38:01.826Z,5.69
2022-11-16T04:40:32.553Z,5.67
2022-11-16T04:43:03.522Z,5.61
2022-11-16T04:45:53.722Z,5.56
2022-11-16T04:48:24.609Z,5.49
2022-11-16T04:50:54.229Z,5.44
2022-11-16T04:53:24.029Z,5.42
2022-11-16T04:56:00.649Z,5.41
2022-11-16T04:58:29.284Z,5.41
2022-11-16T05:00:57.075Z,5.41
2022-11-16T05:03:25.374Z,5.40
2022-11-16T05:05:54.571Z,5.38
2022-11-16T05:08:22.286Z,5.36
2022-11-16T05:10:52.940Z,5.34
2022-11-16T05:13:20.773Z,5.34
2022-11-16T05:15:49.814Z,5.30
2022-11-16T05:18:18.029Z,5.28
2022-11-16T05:21:00.918Z,5.24
2022-11-16T05:23:50.313Z,5.26
2022-11-16T05:26:20.430Z,5.27
2022-11-16T05:28:48.944Z,5.24
2022-11-16T05:31:16.690Z,5.24
2022-11-16T05:33:44.610Z,5.25
2022-11-16T05:36:13.135Z,5.26
2022-11-16T05:38:40.797Z,5.26
2022-11-16T05:41:08.714Z,5.24
2022-11-16T05:43:36.678Z,5.23
2022-11-16T05:46:12.474Z,5.23
2022-11-16T05:48:40.979Z,5.23
2022-11-16T05:51:08.731Z,5.26
2022-11-16T05:53:36.961Z,5.28
2022-11-16T05:56:05.647Z,5.32
2022-11-16T05:58:36.549Z,5.35
2022-11-16T06:01:05.038Z,5.39
2022-11-16T06:03:35.604Z,5.45
2022-11-16T06:06:05.427Z,5.48
2022-11-16T06:08:34.077Z,5.51
2022-11-16T06:11:05.197Z,5.54
2022-11-16T06:13:33.965Z,5.59
2022-11-16T06:16:02.539Z,5.61
2022-11-16T06:18:31.452Z,5.63
2022-11-16T06:20:59.613Z,5.63
2022-11-16T06:23:27.456Z,5.65
2022-11-16T06:25:55.915Z,5.66
2022-11-16T06:28:25.989Z,5.67
2022-11-16T06:30:54.861Z,5.69
2022-11-16T06:33:24.111Z,5.69
2022-11-16T06:35:52.438Z,5.70
2022-11-16T06:38:23.581Z,5.72
2022-11-16T06:40:54.250Z,5.71
2022-11-16T06:43:23.197Z,5.72
2022-11-16T06:45:52.980Z,5.73
2022-11-16T06:48:21.567Z,5.77
2022-11-16T06:50:51.965Z,5.80
2022-11-16T06:53:24.607Z,5.80
2022-11-16T06:55:55.577Z,5.85
2022-11-16T06:58:23.553Z,5.89
2022-11-16T07:00:51.453Z,5.91
2022-11-16T07:03:19.184Z,5.93
2022-11-16T07:05:47.465Z,5.95
2022-11-16T07:08:17.067Z,5.97
2022-11-16T07:10:44.884Z,5.96
2022-11-16T07:13:13.086Z,5.97
2022-11-16T07:15:40.918Z,5.98
2022-11-16T07:18:09.393Z,5.98
2022-11-16T07:20:38.980Z,6.01
2022-11-16T07:23:11.374Z,6.06
2022-11-16T07:25:42.520Z,6.07
2022-11-16T07:28:10.470Z,6.10
2022-11-16T07:30:38.638Z,6.14
2022-11-16T07:33:22.380Z,6.17
2022-11-16T07:36:13.688Z,6.21
2022-11-16T07:38:41.886Z,6.23
2022-11-16T07:41:12.969Z,6.25
2022-11-16T07:43:53.175Z,6.27
2022-11-16T07:46:46.602Z,6.26
2022-11-16T07:49:18.347Z,6.26
2022-11-16T07:51:58.523Z,6.28
2022-11-16T07:54:52.870Z,6.27
2022-11-16T07:57:24.372Z,6.28
2022-11-16T07:59:54.254Z,6.28
2022-11-16T08:02:25.271Z,6.29
2022-11-16T08:04:53.545Z,6.29
2022-11-16T08:07:24.968Z,6.31
2022-11-16T08:09:55.553Z,6.33
2022-11-16T08:12:24.052Z,6.33
2022-11-16T08:14:52.492Z,6.33
2022-11-16T08:17:21.699Z,6.34
2022-11-16T08:19:50.473Z,6.34
2022-11-16T08:22:19.582Z,6.35
2022-11-16T08:24:47.775Z,6.36
2022-11-16T08:27:17.456Z,6.34
2022-11-16T08:29:47.008Z,6.29
2022-11-16T08:32:14.911Z,6.27
2022-11-16T08:34:43.645Z,6.25
2022-11-16T08:37:11.978Z,6.25
2022-11-16T08:39:43.413Z,6.24
2022-11-16T08:42:11.427Z,6.21
2022-11-16T08:44:40.239Z,6.22
2022-11-16T08:47:11.960Z,6.22
2022-11-16T08:49:49.371Z,6.22
2022-11-16T08:52:18.420Z,6.21
2022-11-16T08:54:47.390Z,6.22
2022-11-16T08:57:16.905Z,6.26
2022-11-16T08:59:45.544Z,6.27
2022-11-16T09:02:17.920Z,6.30
2022-11-16T09:04:48.090Z,6.33
2022-11-16T09:07:16.146Z,6.34
2022-11-16T09:09:44.956Z,6.32
2022-11-16T09:12:12.827Z,6.30
2022-11-16T09:14:41.753Z,6.28
2022-11-16T09:17:09.616Z,6.27
2022-11-16T09:19:37.778Z,6.26
2022-11-16T09:22:06.202Z,6.28
2022-11-16T09:24:34.554Z,6.29
2022-11-16T09:27:02.772Z,6.30
2022-11-16T09:29:31.175Z,6.28
2022-11-16T09:31:59.529Z,6.25
2022-11-16T09:34:27.863Z,6.18
2022-11-16T09:36:55.964Z,6.14
2022-11-16T09:39:32.541Z,6.13
2022-11-16T09:42:12.035Z,6.10
2022-11-16T09:44:41.851Z,6.08
2022-11-16T09:47:39.406Z,6.07
2022-11-16T09:50:17.110Z,6.06
2022-11-16T09:52:48.499Z,6.04
2022-11-16T09:55:32.208Z,6.02
2022-11-16T09:58:03.918Z,6.01
2022-11-16T10:00:34.449Z,6.00
2022-11-16T10:03:20.652Z,5.99
2022-11-16T10:06:16.721Z,5.99
2022-11-16T10:08:48.977Z,5.98
2022-11-16T10:11:35.321Z,5.98
2022-11-16T10:14:22.192Z,6.01
2022-11-16T10:17:01.519Z,6.05
2022-11-16T10:19:48.166Z,6.05
2022-11-16T10:22:56.970Z,6.03
2022-11-16T10:25:59.194Z,6.01
2022-11-16T10:28:49.837Z,6.02
2022-11-16T10:31:44.936Z,6.04
2022-11-16T10:34:20.397Z,6.04
2022-11-16T10:36:48.762Z,6.06
2022-11-16T10:39:20.300Z,6.07
2022-11-16T10:42:10.285Z,6.07
2022-11-16T10:44:50.234Z,6.07
2022-11-16T10:47:34.836Z,6.10
2022-11-16T10:50:27.188Z,6.11
2022-11-16T10:52:57.115Z,6.12
2022-11-16T10:55:25.465Z,6.13
2022-11-16T10:58:05.838Z,6.13
2022-11-16T11:00:48.376Z,6.14
2022-11-16T11:03:32.983Z,6.15
2022-11-16T11:06:02.568Z,6.15
2022-11-16T11:08:31.678Z,6.15
2022-11-16T11:11:23.929Z,6.13
2022-11-16T11:14:15.855Z,6.08
2022-11-16T11:16:44.136Z,6.09
2022-11-16T11:19:25.969Z,6.08
2022-11-16T11:22:00.624Z,6.06
2022-11-16T11:24:44.306Z,6.05
2022-11-16T11:27:13.618Z,6.02
2022-11-16T11:29:43.187Z,6.02
2022-11-16T11:32:23.765Z,6.04
2022-11-16T11:34:55.442Z,6.03
2022-11-16T11:37:26.519Z,6.02
2022-11-16T11:40:28.734Z,5.98
2022-11-16T11:43:01.210Z,5.90
2022-11-16T11:45:32.969Z,5.86
2022-11-16T11:48:22.776Z,5.84
2022-11-16T11:50:55.062Z,5.87
2022-11-16T11:53:44.374Z,5.87
2022-11-16T11:56:15.251Z,5.84
2022-11-16T11:58:46.208Z,5.82
2022-11-16T12:01:39.111Z,5.80
2022-11-16T12:04:34.652Z,5.78
2022-11-16T12:07:09.550Z,5.74
2022-11-16T12:09:51.711Z,5.74
2022-11-16T12:12:32.185Z,5.75
2022-11-16T12:15:22.213Z,5.78
2022-11-16T12:18:09.738Z,5.81
2022-11-16T12:21:05.130Z,5.80
2022-11-16T12:24:10.566Z,5.77
2022-11-16T12:26:47.670Z,5.77
2022-11-16T12:29:47.501Z,5.79
2022-11-16T12:32:20.938Z,5.81
2022-11-16T12:35:10.767Z,5.82
2022-11-16T12:37:50.951Z,5.83
2022-11-16T12:40:42.867Z,5.86
2022-11-16T12:43:28.404Z,5.91
2022-11-16T12:46:23.300Z,5.94
2022-11-16T12:48:53.984Z,5.96
2022-11-16T12:51:41.796Z,5.99
2022-11-16T12:54:28.716Z,6.04
2022-11-16T12:57:12.067Z,6.05
2022-11-16T13:00:04.205Z,6.06
2022-11-16T13:02:45.133Z,6.05
2022-11-16T13:05:25.505Z,6.02
2022-11-16T13:08:05.493Z,6.03
2022-11-16T13:10:35.533Z,6.03
2022-11-16T13:13:35.534Z,6.05
2022-11-16T13:16:06.995Z,6.04
2022-11-16T13:18:38.547Z,6.01
2022-11-16T13:21:26.061Z,5.99
2022-11-16T13:24:20.344Z,5.91
2022-11-16T13:26:54.695Z,5.85
2022-11-16T13:29:37.542Z,5.81
2022-11-16T13:32:35.011Z,5.82
2022-11-16T13:35:11.655Z,5.82
2022-11-16T13:37:39.802Z,5.78
2022-11-16T13:40:08.583Z,5.76
2022-11-16T13:42:45.114Z,5.74
2022-11-16T13:45:19.885Z,5.72
2022-11-16T13:47:57.334Z,5.72
2022-11-16T13:50:37.952Z,5.72
2022-11-16T13:56:10.422Z,5.72
2022-11-16T13:58:45.567Z,5.71
2022-11-16T14:01:14.446Z,5.71
2022-11-16T14:04:12.775Z,5.71
2022-11-16T14:06:43.823Z,5.73
2022-11-16T14:09:41.742Z,5.75
2022-11-16T14:12:37.546Z,5.99
2022-11-16T14:15:22.170Z,6.25
2022-11-16T14:18:08.759Z,6.56
2022-11-16T14:20:53.249Z,6.91
2022-11-16T14:23:59.069Z,7.13
2022-11-16T14:26:36.024Z,7.31
2022-11-16T14:29:28.461Z,7.26
2022-11-16T14:32:02.993Z,7.19
2022-11-16T14:34:42.644Z,7.20
2022-11-16T14:37:30.207Z,7.20
2022-11-16T14:40:15.892Z,7.12
2022-11-16T14:43:15.214Z,7.10
2022-11-16T14:45:39.952Z,6.93
2022-11-16T14:48:19.929Z,6.75
2022-11-16T14:51:06.214Z,6.58
2022-11-16T14:53:38.815Z,6.41
2022-11-16T14:56:12.545Z,6.31
2022-11-16T14:58:50.654Z,6.23
2022-11-16T15:01:24.940Z,6.15
2022-11-16T15:04:06.236Z,6.07
2022-11-16T15:06:43.048Z,6.02
2022-11-16T15:09:18.666Z,5.96
2022-11-16T15:12:07.843Z,5.88
2022-11-16T15:14:41.250Z,5.82
2022-11-16T15:17:15.030Z,5.76
2022-11-16T15:19:43.047Z,5.71
2022-11-16T15:22:18.329Z,5.68
2022-11-16T15:24:55.101Z,5.66
2022-11-16T15:27:33.403Z,5.65
2022-11-16T15:30:21.965Z,5.60
2022-11-16T15:32:51.712Z,5.56
2022-11-16T15:35:30.822Z,5.55
2022-11-16T15:38:16.876Z,5.52
2022-11-16T15:40:49.499Z,5.52
2022-11-16T15:43:19.125Z,5.50
2022-11-16T15:45:47.792Z,5.49
2022-11-16T15:48:19.947Z,5.47
2022-11-16T15:51:04.673Z,5.45
2022-11-16T15:53:40.883Z,5.41
2022-11-16T15:56:20.879Z,5.37
2022-11-16T15:58:49.715Z,5.35
2022-11-16T16:01:18.348Z,5.35
2022-11-16T16:04:06.739Z,5.35
2022-11-16T16:06:54.887Z,5.35
2022-11-16T16:09:32.953Z,5.33
2022-11-16T16:12:30.096Z,5.32
2022-11-16T16:15:25.440Z,5.31
2022-11-16T16:17:54.308Z,5.28
2022-11-16T16:20:24.676Z,5.24
2022-11-16T16:22:52.599Z,5.23
2022-11-16T16:25:33.304Z,5.21
2022-11-16T16:28:01.919Z,5.20
2022-11-16T16:30:30.628Z,5.19
2022-11-16T16:32:58.650Z,5.18
2022-11-16T16:35:26.752Z,5.18
2022-11-16T16:38:00.743Z,5.17
2022-11-16T16:40:29.477Z,5.16
2022-11-16T16:42:58.077Z,5.16
2022-11-16T16:45:41.888Z,5.15
2022-11-16T16:48:12.645Z,5.13
2022-11-16T16:50:40.468Z,5.14
2022-11-16T16:53:12.276Z,5.15
2022-11-16T16:55:41.212Z,5.18
2022-11-16T16:58:13.509Z,5.20
2022-11-16T17:00:42.212Z,5.20
2022-11-16T17:03:10.107Z,5.18
2022-11-16T17:05:38.120Z,5.19
2022-11-16T17:08:06.308Z,5.19
2022-11-16T17:10:34.060Z,5.18
2022-11-16T17:13:03.204Z,5.19
2022-11-16T17:15:31.120Z,5.21
2022-11-16T17:17:59.892Z,5.20
2022-11-16T17:20:27.932Z,5.20
2022-11-16T17:22:56.562Z,5.20
2022-11-16T17:25:24.223Z,5.19
2022-11-16T17:27:52.667Z,5.18
2022-11-16T17:30:21.916Z,5.18
2022-11-16T17:32:49.652Z,5.15
2022-11-16T17:35:17.657Z,5.12
2022-11-16T17:37:45.646Z,5.10
2022-11-16T17:40:13.901Z,5.07
2022-11-16T17:42:43.214Z,5.05
2022-11-16T17:45:11.963Z,5.03
2022-11-16T17:47:39.758Z,5.00
2022-11-16T17:50:09.193Z,4.96
2022-11-16T17:52:37.057Z,4.92
2022-11-16T17:55:05.286Z,4.91
2022-11-16T17:57:33.268Z,4.91
2022-11-16T18:00:01.452Z,4.90
2022-11-16T18:02:29.516Z,4.88
2022-11-16T18:04:57.457Z,4.87
2022-11-16T18:07:26.483Z,4.85
2022-11-16T18:09:54.197Z,4.82
2022-11-16T18:12:24.729Z,4.78
2022-11-16T18:15:26.325Z,4.78
2022-11-16T18:17:44.775Z,4.77
2022-11-16T18:20:12.719Z,4.77
2022-11-16T18:22:40.401Z,4.77
2022-11-16T18:25:14.352Z,4.77
2022-11-16T18:27:42.092Z,4.77
2022-11-16T18:30:10.390Z,4.76
2022-11-16T18:32:38.322Z,4.74
2022-11-16T18:35:09.929Z,4.74
2022-11-16T18:37:37.819Z,4.73
2022-11-16T18:40:06.182Z,4.71
2022-11-16T18:42:33.992Z,4.69
2022-11-16T18:45:01.759Z,4.68
2022-11-16T18:47:29.900Z,4.68
2022-11-16T18:49:57.669Z,4.69
2022-11-16T18:52:38.876Z,4.69
2022-11-16T18:55:07.782Z,4.70
2022-11-16T18:57:35.530Z,4.70
2022-11-16T19:00:04.136Z,4.69
2022-11-16T19:02:32.302Z,4.68
2022-11-16T19:05:00.258Z,4.67
2022-11-16T19:07:27.982Z,4.67
2022-11-16T19:09:56.190Z,4.66
2022-11-16T19:12:24.162Z,4.64
2022-11-16T19:14:51.880Z,4.64
2022-11-16T19:17:24.674Z,4.64
2022-11-16T19:19:52.890Z,4.63
2022-11-16T19:22:21.000Z,4.62
2022-11-16T19:24:48.987Z,4.59
2022-11-16T19:27:16.941Z,4.56
2022-11-16T19:29:44.852Z,4.52
2022-11-16T19:32:12.689Z,4.48
2022-11-16T19:34:40.579Z,4.46
2022-11-16T19:37:08.691Z,4.45
2022-11-16T19:39:36.640Z,4.44
2022-11-16T19:42:04.558Z,4.43
2022-11-16T19:44:32.503Z,4.40
2022-11-16T19:47:00.363Z,4.40
2022-11-16T19:49:28.260Z,4.40
2022-11-16T19:51:56.236Z,4.40
2022-11-16T19:54:24.121Z,4.41
2022-11-16T19:56:55.081Z,4.41
2022-11-16T19:59:23.291Z,4.43
2022-11-16T20:01:51.310Z,4.45
2022-11-16T20:04:19.037Z,4.45
2022-11-16T20:06:47.284Z,4.45
2022-11-16T20:09:15.209Z,4.42
2022-11-16T20:11:43.063Z,4.37
2022-11-16T20:14:11.966Z,4.34
2022-11-16T20:16:42.405Z,4.32
2022-11-16T20:19:10.911Z,4.28
2022-11-16T20:21:41.234Z,4.26
2022-11-16T20:24:17.495Z,4.28
2022-11-16T20:26:48.088Z,4.25
2022-11-16T20:29:17.568Z,4.24
2022-11-16T20:31:46.385Z,4.22
2022-11-16T20:34:16.715Z,4.19
2022-11-16T20:36:46.529Z,4.18
2022-11-16T20:39:16.077Z,4.16
2022-11-16T20:41:44.307Z,4.14
2022-11-16T20:44:22.376Z,4.09
2022-11-16T20:46:52.572Z,4.07
2022-11-16T20:49:20.664Z,4.08
2022-11-16T20:51:49.780Z,4.08
2022-11-16T20:54:17.703Z,4.07
2022-11-16T20:56:45.708Z,4.07
2022-11-16T20:59:13.901Z,4.07
2022-11-16T21:01:47.593Z,4.02
2022-11-16T21:04:16.123Z,4.01
2022-11-16T21:06:44.164Z,4.00
2022-11-16T21:09:13.082Z,3.98
2022-11-16T21:11:59.681Z,3.97
2022-11-16T21:14:27.484Z,3.97
2022-11-16T21:16:55.494Z,3.96
2022-11-16T21:19:23.591Z,3.97
2022-11-16T21:21:51.330Z,3.97
2022-11-16T21:24:19.364Z,3.99
2022-11-16T21:26:47.476Z,4.01
2022-11-16T21:29:15.433Z,4.00
2022-11-16T21:31:43.492Z,3.99
2022-11-16T21:34:11.506Z,3.98
2022-11-16T21:36:39.530Z,3.98
2022-11-16T21:39:07.426Z,3.99
2022-11-16T21:41:36.473Z,4.00
2022-11-16T21:44:04.578Z,4.01
2022-11-16T21:46:32.334Z,4.03
2022-11-16T21:49:00.221Z,4.03
2022-11-16T21:51:28.194Z,4.05
2022-11-16T21:53:55.963Z,4.05
2022-11-16T21:56:25.900Z,4.06
2022-11-16T21:58:55.424Z,4.07
2022-11-16T22:01:23.752Z,4.06
2022-11-16T22:04:11.632Z,4.06
2022-11-16T22:06:58.357Z,4.05
2022-11-16T22:09:26.289Z,4.04
2022-11-16T22:15:11.065Z,4.00
2022-11-16T22:17:44.417Z,3.96
2022-11-16T22:20:12.841Z,3.95
2022-11-16T22:22:40.956Z,3.95
2022-11-16T22:25:09.604Z,3.92
2022-11-16T22:27:58.362Z,3.91
2022-11-16T22:30:26.345Z,3.89
2022-11-16T22:32:54.464Z,3.86
2022-11-16T22:35:22.508Z,3.83
2022-11-16T22:37:51.462Z,3.79
2022-11-16T22:40:19.725Z,3.83
2022-11-16T22:42:47.828Z,3.82
2022-11-16T22:45:16.603Z,3.85
2022-11-16T22:47:45.112Z,3.83
2022-11-16T22:50:13.288Z,3.83
2022-11-16T22:52:41.659Z,3.82
2022-11-16T22:55:10.208Z,3.82
2022-11-16T22:57:38.280Z,3.81
2022-11-16T23:00:07.648Z,3.82
2022-11-16T23:02:35.897Z,3.81
2022-11-16T23:05:04.248Z,3.82
2022-11-16T23:07:32.398Z,3.82
2022-11-16T23:10:00.577Z,3.83
2022-11-16T23:12:47.590Z,3.83
2022-11-16T23:15:34.676Z,3.85
2022-11-16T23:18:02.814Z,3.85
2022-11-16T23:21:09.531Z,3.85
2022-11-16T23:23:56.304Z,3.85
2022-11-16T23:26:43.905Z,3.85
2022-11-16T23:29:12.439Z,3.85
2022-11-16T23:31:40.827Z,3.85
2022-11-16T23:34:08.867Z,3.82
2022-11-16T23:36:36.993Z,3.81
2022-11-16T23:39:05.417Z,3.79
2022-11-16T23:41:51.948Z,3.79
2022-11-16T23:44:20.271Z,3.80
2022-11-16T23:46:48.356Z,3.80
2022-11-16T23:49:16.458Z,3.80
2022-11-16T23:51:44.850Z,3.80
2022-11-16T23:54:12.922Z,3.81
2022-11-16T23:56:42.472Z,3.81
2022-11-16T23:59:10.845Z,3.83
